Time;durP1;ratioP1;P1;durP2;ratioP2;P2;SDS_P1;SDS_P2;PMS_P1;PMS_P2;Temp;Humidity;BMP_temperature;BMP_pressure;BME280_temperature;BME280_humidity;BME280_pressure;Samples;Min_cycle;Max_cycle;Signal;HPM_P1;HPM_P2
2022/06/11 00:00:53;;;;;;;6.10;3.33;;;21.00;86.60;;;;;;4994758;28;20185;-60
2022/06/11 00:03:18;;;;;;;6.20;4.03;;;21.00;91.30;;;;;;5007657;28;20208;-61
2022/06/11 00:05:44;;;;;;;12.20;4.07;;;20.90;87.30;;;;;;5003065;28;20200;-61
2022/06/11 00:08:10;;;;;;;6.83;3.37;;;20.90;83.50;;;;;;5010033;28;20204;-60
2022/06/11 00:10:37;;;;;;;3.20;2.70;;;20.90;80.60;;;;;;4993846;28;20618;-60
2022/06/11 00:13:03;;;;;;;6.30;3.27;;;20.90;80.90;;;;;;4999744;28;20572;-60
2022/06/11 00:15:29;;;;;;;4.87;3.27;;;20.80;79.10;;;;;;4993847;28;20287;-59
2022/06/11 00:17:57;;;;;;;4.90;3.53;;;20.80;78.80;;;;;;5010026;28;20290;-60
2022/06/11 00:20:25;;;;;;;4.37;3.27;;;20.70;78.10;;;;;;4989134;28;20379;-60
2022/06/11 00:22:51;;;;;;;5.68;3.40;;;20.70;79.40;;;;;;5015068;28;20213;-60
2022/06/11 00:25:17;;;;;;;4.03;3.57;;;20.70;80.40;;;;;;4988434;28;20210;-61
2022/06/11 00:27:43;;;;;;;4.47;4.07;;;20.60;79.00;;;;;;5014958;28;20599;-60
2022/06/11 00:30:11;;;;;;;4.83;3.40;;;20.60;80.00;;;;;;4991801;28;20200;-60
2022/06/11 00:32:38;;;;;;;3.73;3.33;;;20.60;79.40;;;;;;5018721;28;20722;-60
2022/06/11 00:35:05;;;;;;;5.43;3.40;;;20.50;78.60;;;;;;4998263;28;20180;-59
2022/06/11 00:37:32;;;;;;;4.10;3.53;;;20.50;79.00;;;;;;5004283;28;20676;-58
2022/06/11 00:39:59;;;;;;;3.53;3.20;;;20.40;79.10;;;;;;4997536;28;20195;-59
2022/06/11 00:42:28;;;;;;;5.30;3.57;;;20.40;80.80;;;;;;4997801;28;20207;-60
2022/06/11 00:45:19;;;;;;;4.93;3.23;;;20.40;79.30;;;;;;4985296;28;20259;-60
2022/06/11 00:47:50;;;;;;;5.03;3.50;;;20.30;82.00;;;;;;5000225;28;20209;-60
2022/06/11 00:50:40;;;;;;;7.13;5.03;;;20.40;85.10;;;;;;4995780;28;20433;-59
2022/06/11 00:53:29;;;;;;;5.03;3.90;;;20.40;84.50;;;;;;4983192;28;20204;-59
2022/06/11 00:55:54;;;;;;;5.50;3.80;;;20.30;81.60;;;;;;4989385;28;20191;-59
2022/06/11 00:58:25;;;;;;;3.80;3.40;;;20.30;83.40;;;;;;5009866;28;20199;-62
2022/06/11 01:00:54;;;;;;;5.70;3.67;;;20.30;83.90;;;;;;4992028;28;20187;-60
2022/06/11 01:03:25;;;;;;;6.23;3.30;;;20.30;84.90;;;;;;5014439;28;20211;-60
2022/06/11 01:06:20;;;;;;;7.57;3.53;;;20.40;86.90;;;;;;4992827;28;20288;-62
2022/06/11 01:09:18;;;;;;;5.40;3.47;;;20.30;87.90;;;;;;5003307;28;20244;-60
2022/06/11 01:12:27;;;;;;;4.80;3.47;;;20.30;87.70;;;;;;5000667;28;20590;-60
2022/06/11 01:15:06;;;;;;;4.67;3.37;;;20.30;84.80;;;;;;4969411;28;20973;-59
2022/06/11 01:17:52;;;;;;;5.80;3.43;;;20.30;89.10;;;;;;4998931;28;20199;-59
2022/06/11 01:20:52;;;;;;;5.40;4.00;;;20.20;90.00;;;;;;4995980;28;20199;-60
2022/06/11 01:23:34;;;;;;;5.63;4.43;;;20.20;90.80;;;;;;4996104;28;20215;-59
2022/06/11 01:26:09;;;;;;;7.07;3.70;;;20.20;91.20;;;;;;5001778;28;20199;-60
2022/06/11 01:28:49;;;;;;;3.63;3.07;;;20.20;90.10;;;;;;4996001;28;20232;-61
2022/06/11 01:31:41;;;;;;;9.63;3.33;;;20.10;88.90;;;;;;5005328;28;20193;-60
2022/06/11 01:34:21;;;;;;;5.73;3.40;;;20.10;85.70;;;;;;4988494;28;20215;-60
2022/06/11 01:36:51;;;;;;;4.93;3.20;;;20.00;85.10;;;;;;5002873;28;20224;-60
2022/06/11 01:39:24;;;;;;;3.60;3.23;;;20.00;86.60;;;;;;4995915;28;20205;-60
2022/06/11 01:42:16;;;;;;;7.03;3.50;;;20.10;88.20;;;;;;4996618;28;20200;-60
2022/06/11 01:44:44;;;;;;;3.83;3.00;;;20.00;85.40;;;;;;4997391;28;20208;-60
2022/06/11 01:47:13;;;;;;;5.17;3.33;;;19.90;85.10;;;;;;5013619;28;20196;-60
2022/06/11 01:49:47;;;;;;;4.50;3.23;;;20.00;84.40;;;;;;4989580;28;20769;-60
2022/06/11 01:52:33;;;;;;;3.97;3.30;;;19.90;85.10;;;;;;5017280;28;20270;-60
2022/06/11 01:54:59;;;;;;;6.07;3.63;;;19.90;88.70;;;;;;4997084;28;20184;-61
2022/06/11 01:57:54;;;;;;;3.93;3.00;;;19.90;86.80;;;;;;5013840;28;20198;-61
2022/06/11 02:00:24;;;;;;;4.07;3.20;;;19.90;87.60;;;;;;4999976;28;20563;-61
2022/06/11 02:03:10;;;;;;;4.27;3.83;;;19.90;87.20;;;;;;5014085;28;20207;-61
2022/06/11 02:06:06;;;;;;;6.03;3.30;;;19.80;85.90;;;;;;4991525;28;20251;-60
2022/06/11 02:08:49;;;;;;;4.60;3.43;;;19.70;86.40;;;;;;4986564;28;20219;-60
2022/06/11 02:11:27;;;;;;;4.63;3.57;;;19.70;87.40;;;;;;4991133;28;20184;-59
2022/06/11 02:14:13;;;;;;;3.93;3.00;;;19.70;89.50;;;;;;4993181;28;20223;-58
2022/06/11 02:16:54;;;;;;;3.90;3.13;;;19.60;89.10;;;;;;5010550;28;20270;-58
2022/06/11 02:19:33;;;;;;;7.67;3.47;;;19.60;89.20;;;;;;4994436;28;20330;-58
2022/06/11 02:22:07;;;;;;;5.47;3.57;;;19.50;90.80;;;;;;5013502;28;20196;-58
2022/06/11 02:24:38;;;;;;;5.37;3.47;;;19.50;93.90;;;;;;5002578;28;20200;-59
2022/06/11 02:27:15;;;;;;;3.77;3.30;;;19.50;95.70;;;;;;4997322;28;20757;-59
2022/06/11 02:29:41;;;;;;;4.37;3.00;;;19.50;95.10;;;;;;4998029;28;20222;-58
2022/06/11 02:32:13;;;;;;;3.60;2.87;;;19.50;95.40;;;;;;5021005;28;20642;-60
2022/06/11 02:34:46;;;;;;;4.33;3.07;;;19.50;96.60;;;;;;5001624;28;20276;-60
2022/06/11 02:37:29;;;;;;;5.23;3.23;;;19.50;93.80;;;;;;4996850;28;21090;-60
2022/06/11 02:39:59;;;;;;;3.80;3.40;;;19.50;93.60;;;;;;4995158;28;20187;-60
2022/06/11 02:42:26;;;;;;;3.03;2.53;;;19.50;93.20;;;;;;5002268;28;20662;-59
2022/06/11 02:44:52;;;;;;;5.83;3.53;;;19.40;93.00;;;;;;5015222;28;20662;-59
2022/06/11 02:47:19;;;;;;;4.00;3.13;;;19.40;93.10;;;;;;5005244;28;20206;-60
2022/06/11 02:49:45;;;;;;;5.83;3.40;;;19.40;92.60;;;;;;4993071;28;20212;-60
2022/06/11 02:52:16;;;;;;;5.53;2.90;;;19.40;92.40;;;;;;5001666;28;20223;-60
2022/06/11 02:54:43;;;;;;;3.37;3.00;;;19.40;93.00;;;;;;5000808;28;20185;-60
2022/06/11 02:57:13;;;;;;;6.13;3.57;;;19.30;92.40;;;;;;5002951;28;20670;-58
2022/06/11 02:59:41;;;;;;;4.87;2.60;;;19.30;92.30;;;;;;4996900;28;20649;-59
2022/06/11 03:02:07;;;;;;;4.63;3.10;;;19.30;92.70;;;;;;5018094;28;20208;-59
2022/06/11 03:04:33;;;;;;;4.57;3.50;;;19.30;93.60;;;;;;4996283;28;20188;-59
2022/06/11 03:07:00;;;;;;;4.63;3.77;;;19.30;94.90;;;;;;5005782;28;20600;-59
2022/06/11 03:09:30;;;;;;;5.07;3.37;;;19.30;97.60;;;;;;4991389;28;20219;-59
2022/06/11 03:11:57;;;;;;;4.27;3.47;;;19.40;98.10;;;;;;4998220;28;20207;-59
2022/06/11 03:14:22;;;;;;;5.13;3.27;;;19.40;97.80;;;;;;4989734;28;20224;-58
2022/06/11 03:16:48;;;;;;;4.13;3.17;;;19.40;98.30;;;;;;5018325;28;20584;-58
2022/06/11 03:19:14;;;;;;;4.60;3.27;;;19.40;99.40;;;;;;4997663;28;20648;-59
2022/06/11 03:21:41;;;;;;;4.87;2.70;;;19.40;97.10;;;;;;5000119;28;20812;-59
2022/06/11 03:24:07;;;;;;;7.20;3.30;;;19.50;96.70;;;;;;4992684;28;20295;-59
2022/06/11 03:26:34;;;;;;;6.37;3.33;;;19.50;99.40;;;;;;5022845;28;20204;-59
2022/06/11 03:29:00;;;;;;;5.07;3.37;;;19.50;97.30;;;;;;5005037;28;20223;-59
2022/06/11 03:31:26;;;;;;;4.00;2.83;;;19.60;98.20;;;;;;5025235;28;20191;-59
2022/06/11 03:33:57;;;;;;;3.93;3.50;;;19.60;99.40;;;;;;5029499;28;20619;-59
2022/06/11 03:36:23;;;;;;;4.00;2.40;;;19.60;99.30;;;;;;5008713;28;20279;-58
2022/06/11 03:38:49;;;;;;;5.70;3.30;;;19.70;98.70;;;;;;4996937;28;20584;-58
2022/06/11 03:41:16;;;;;;;3.47;2.70;;;19.70;97.70;;;;;;5007533;28;20241;-60
2022/06/11 03:43:42;;;;;;;5.10;3.00;;;19.70;95.90;;;;;;4995744;28;20607;-59
2022/06/11 03:46:07;;;;;;;4.83;3.13;;;19.70;96.60;;;;;;5016248;28;20196;-59
2022/06/11 03:48:36;;;;;;;3.10;2.80;;;19.70;95.70;;;;;;4991798;28;20244;-60
2022/06/11 03:51:02;;;;;;;3.70;3.23;;;19.70;95.90;;;;;;5013767;28;20199;-59
2022/06/11 03:53:29;;;;;;;6.07;3.53;;;19.80;96.50;;;;;;4992898;28;20214;-60
2022/06/11 03:55:55;;;;;;;5.17;2.80;;;19.80;97.40;;;;;;5003380;28;20193;-59
2022/06/11 03:58:21;;;;;;;5.00;2.90;;;19.80;98.60;;;;;;5000570;28;20224;-59
2022/06/11 04:03:32;;;;;;;4.20;2.70;;;19.80;99.90;;;;;;4995872;28;20223;-59
2022/06/11 04:05:58;;;;;;;5.63;3.70;;;19.90;99.90;;;;;;5011845;28;20344;-59
2022/06/11 04:08:26;;;;;;;3.73;2.80;;;19.90;98.30;;;;;;4993309;28;20205;-59
2022/06/11 04:10:54;;;;;;;8.20;3.57;;;19.90;99.40;;;;;;5008456;28;20741;-59
2022/06/11 04:13:21;;;;;;;6.03;3.43;;;19.90;98.00;;;;;;5006276;28;20204;-59
2022/06/11 04:15:47;;;;;;;4.50;3.87;;;19.90;97.90;;;;;;5003151;28;20739;-59
2022/06/11 04:18:35;;;;;;;5.47;3.57;;;20.00;96.60;;;;;;4999272;28;20287;-59
2022/06/11 04:21:05;;;;;;;7.10;5.40;;;20.00;97.70;;;;;;5004495;28;20191;-58
2022/06/11 04:23:31;;;;;;;4.10;3.17;;;20.10;97.70;;;;;;4998558;28;20228;-59
2022/06/11 04:26:07;;;;;;;3.33;3.00;;;20.10;97.20;;;;;;5015397;28;20223;-59
2022/06/11 04:28:33;;;;;;;3.47;2.80;;;20.10;95.50;;;;;;4992099;28;20216;-60
2022/06/11 04:31:00;;;;;;;7.13;2.90;;;20.20;95.30;;;;;;5006091;28;20192;-59
2022/06/11 04:33:27;;;;;;;4.43;2.80;;;20.30;95.10;;;;;;4992758;28;20204;-59
2022/06/11 04:35:53;;;;;;;3.90;3.40;;;20.30;94.70;;;;;;5023463;28;20678;-60
2022/06/11 04:38:19;;;;;;;5.57;3.20;;;20.40;94.90;;;;;;4997533;28;20224;-60
2022/06/11 04:40:45;;;;;;;4.27;2.70;;;20.40;94.80;;;;;;5020749;28;20657;-60
2022/06/11 04:43:10;;;;;;;4.17;2.80;;;20.40;95.30;;;;;;5024273;28;20239;-58
2022/06/11 04:45:36;;;;;;;3.43;2.80;;;20.50;94.30;;;;;;5009523;28;20246;-59
2022/06/11 04:48:03;;;;;;;2.90;2.70;;;20.50;94.30;;;;;;4999981;28;20217;-60
2022/06/11 04:50:28;;;;;;;6.97;3.10;;;20.50;93.90;;;;;;5014767;28;20223;-58
2022/06/11 04:52:54;;;;;;;3.57;2.87;;;20.50;94.40;;;;;;5009693;28;20207;-59
2022/06/11 04:55:20;;;;;;;6.23;3.43;;;20.50;94.80;;;;;;5011469;28;20598;-58
2022/06/11 04:57:46;;;;;;;5.53;3.57;;;20.50;96.60;;;;;;5005577;28;20254;-58
2022/06/11 05:00:16;;;;;;;9.10;4.20;;;20.50;96.20;;;;;;5012758;28;20204;-60
2022/06/11 05:02:42;;;;;;;4.40;3.03;;;20.60;97.80;;;;;;5007601;28;20204;-60
2022/06/11 05:05:08;;;;;;;5.30;3.67;;;20.70;97.00;;;;;;5004962;28;20199;-59
2022/06/11 05:07:34;;;;;;;4.50;3.07;;;20.70;97.30;;;;;;4997102;28;20208;-59
2022/06/11 05:09:59;;;;;;;5.80;3.17;;;20.70;95.40;;;;;;4996710;28;20211;-60
2022/06/11 05:12:25;;;;;;;4.67;2.90;;;20.70;96.20;;;;;;5010716;28;20280;-60
2022/06/11 05:14:50;;;;;;;4.60;3.20;;;20.70;96.20;;;;;;4993771;28;20185;-60
2022/06/11 05:17:17;;;;;;;6.10;3.63;;;20.70;94.90;;;;;;5013631;28;20243;-61
2022/06/11 05:19:42;;;;;;;4.57;3.30;;;20.80;96.00;;;;;;4993758;28;20188;-60
2022/06/11 05:22:08;;;;;;;3.97;3.60;;;20.80;95.80;;;;;;5011872;28;20227;-60
2022/06/11 05:24:33;;;;;;;3.97;3.17;;;20.90;95.70;;;;;;4988273;28;20185;-61
2022/06/11 05:27:08;;;;;;;3.00;2.70;;;20.90;94.40;;;;;;5019955;28;20294;-61
2022/06/11 05:29:48;;;;;;;6.03;3.05;;;21.00;93.90;;;;;;4996338;28;20301;-60
2022/06/11 05:32:16;;;;;;;6.55;3.38;;;21.10;94.10;;;;;;4987355;28;20224;-59
2022/06/11 05:34:42;;;;;;;10.00;4.90;;;21.10;95.00;;;;;;4990595;28;20192;-59
2022/06/11 05:37:09;;;;;;;4.57;3.20;;;21.20;95.50;;;;;;4999624;28;20220;-59
2022/06/11 05:39:34;;;;;;;4.88;2.88;;;21.20;94.90;;;;;;4994645;28;20639;-59
2022/06/11 05:42:00;;;;;;;3.93;3.20;;;21.30;94.30;;;;;;5007453;28;20280;-60
2022/06/11 05:44:25;;;;;;;3.90;3.00;;;21.30;93.50;;;;;;4995317;28;20188;-60
2022/06/11 05:46:52;;;;;;;4.18;3.20;;;21.50;93.60;;;;;;5017085;28;20421;-60
2022/06/11 05:49:22;;;;;;;2.60;2.40;;;21.50;93.30;;;;;;4996763;28;20217;-59
2022/06/11 05:51:54;;;;;;;5.53;3.03;;;21.60;92.60;;;;;;5013610;28;20523;-60
2022/06/11 05:54:23;;;;;;;4.28;3.58;;;21.70;92.70;;;;;;4996551;28;20184;-58
2022/06/11 05:56:50;;;;;;;219.15;205.45;;;21.70;92.20;;;;;;5022972;28;20195;-58
2022/06/11 05:59:20;;;;;;;6.35;2.75;;;21.70;91.90;;;;;;4988509;28;20185;-59
2022/06/11 06:01:47;;;;;;;3.58;3.00;;;21.70;91.80;;;;;;5002287;28;20701;-59
2022/06/11 06:04:13;;;;;;;2.78;2.25;;;21.60;91.90;;;;;;4997404;28;20295;-59
2022/06/11 06:06:38;;;;;;;8.75;2.95;;;21.70;91.80;;;;;;5023979;28;20278;-59
2022/06/11 06:09:04;;;;;;;3.38;2.83;;;21.70;91.90;;;;;;4995321;28;20954;-59
2022/06/11 06:11:32;;;;;;;5.20;3.25;;;21.70;91.80;;;;;;5007760;28;20247;-60
2022/06/11 06:13:57;;;;;;;7.32;3.17;;;21.70;91.60;;;;;;4995535;28;20290;-61
2022/06/11 06:16:26;;;;;;;4.88;2.75;;;21.80;91.20;;;;;;5023059;28;20189;-60
2022/06/11 06:18:52;;;;;;;2.95;2.70;;;21.80;91.40;;;;;;5004715;28;20237;-60
2022/06/11 06:21:21;;;;;;;4.10;2.78;;;21.80;91.00;;;;;;5006003;28;20189;-60
2022/06/11 06:23:47;;;;;;;5.10;2.58;;;21.90;90.90;;;;;;4999677;28;20228;-60
2022/06/11 06:26:13;;;;;;;3.10;2.88;;;21.90;90.80;;;;;;5001102;28;20655;-60
2022/06/11 06:28:39;;;;;;;6.88;3.00;;;22.00;91.10;;;;;;4996851;28;20200;-60
2022/06/11 06:31:06;;;;;;;4.95;2.92;;;22.10;91.10;;;;;;4998884;28;20189;-60
2022/06/11 06:33:32;;;;;;;3.10;2.85;;;22.20;91.50;;;;;;5001002;28;20275;-60
2022/06/11 06:35:59;;;;;;;5.10;2.88;;;22.30;92.20;;;;;;5002482;28;20335;-59
2022/06/11 06:38:25;;;;;;;5.10;2.80;;;22.30;90.80;;;;;;4994786;28;20966;-59
2022/06/11 06:40:50;;;;;;;5.97;3.40;;;22.50;90.60;;;;;;5002332;28;20195;-60
2022/06/11 06:43:16;;;;;;;4.15;2.88;;;22.50;91.80;;;;;;4994946;28;20284;-59
2022/06/11 06:45:42;;;;;;;6.63;3.05;;;22.60;91.20;;;;;;4997502;28;20239;-61
2022/06/11 06:48:08;;;;;;;3.25;2.92;;;22.70;91.00;;;;;;4991721;28;20209;-63
2022/06/11 06:50:33;;;;;;;4.90;3.30;;;22.70;90.70;;;;;;5001491;28;20608;-63
2022/06/11 06:52:59;;;;;;;5.55;3.13;;;22.70;89.60;;;;;;5002475;28;20227;-64
2022/06/11 06:55:24;;;;;;;6.20;2.60;;;22.80;89.40;;;;;;4998244;28;20191;-63
2022/06/11 06:57:50;;;;;;;351.17;329.20;;;22.70;89.70;;;;;;4996546;28;20679;-65
2022/06/11 07:00:17;;;;;;;225.63;206.70;;;22.70;90.00;;;;;;4998728;28;20181;-65
2022/06/11 07:02:44;;;;;;;4.32;2.80;;;22.80;90.30;;;;;;4997159;28;20206;-66
2022/06/11 07:05:12;;;;;;;5.68;2.45;;;23.00;90.10;;;;;;5000955;28;20196;-64
2022/06/11 07:07:38;;;;;;;4.82;2.85;;;23.20;88.80;;;;;;4999571;28;20292;-64
2022/06/11 07:10:05;;;;;;;3.72;2.75;;;23.10;87.90;;;;;;4996133;28;20302;-65
2022/06/11 07:12:30;;;;;;;6.57;2.92;;;23.00;88.30;;;;;;4996783;28;20207;-64
2022/06/11 07:14:56;;;;;;;5.80;3.25;;;23.00;88.60;;;;;;4999385;28;20205;-66
2022/06/11 07:17:22;;;;;;;7.60;2.53;;;23.00;88.60;;;;;;4994984;28;20680;-64
2022/06/11 07:19:55;;;;;;;6.53;3.25;;;23.00;89.20;;;;;;4996595;28;20654;-64
2022/06/11 07:22:32;;;;;;;3.58;2.28;;;23.00;89.00;;;;;;4998510;28;20214;-65
2022/06/11 07:24:59;;;;;;;5.47;3.45;;;23.00;88.80;;;;;;4996361;28;20181;-66
2022/06/11 07:27:27;;;;;;;6.50;3.35;;;22.90;89.10;;;;;;4996462;28;20293;-65
2022/06/11 07:29:58;;;;;;;3.13;2.70;;;23.10;88.70;;;;;;4999111;28;20217;-65
2022/06/11 07:32:26;;;;;;;4.00;2.58;;;23.20;88.00;;;;;;4993270;28;20252;-64
2022/06/11 07:34:51;;;;;;;5.78;2.88;;;23.20;87.10;;;;;;4996760;28;20252;-64
2022/06/11 07:37:18;;;;;;;5.97;4.90;;;23.20;87.00;;;;;;4994963;28;20230;-64
2022/06/11 07:39:46;;;;;;;4.75;2.88;;;23.20;88.40;;;;;;4996909;28;20257;-67
2022/06/11 07:42:12;;;;;;;5.47;2.45;;;23.30;87.60;;;;;;4998199;28;20207;-65
2022/06/11 07:44:38;;;;;;;4.00;2.72;;;23.30;86.20;;;;;;4997404;28;20186;-65
2022/06/11 07:47:05;;;;;;;6.38;4.18;;;23.40;85.40;;;;;;4998454;28;20289;-66
2022/06/11 07:49:31;;;;;;;5.35;2.65;;;23.40;85.80;;;;;;4995556;28;20210;-65
2022/06/11 07:51:58;;;;;;;4.47;4.00;;;23.40;85.50;;;;;;4994914;28;20248;-64
2022/06/11 07:54:23;;;;;;;4.18;2.75;;;23.50;85.50;;;;;;4995681;28;20190;-67
2022/06/11 07:56:49;;;;;;;3.13;2.60;;;23.60;85.60;;;;;;4996066;28;20213;-65
2022/06/11 07:59:15;;;;;;;5.88;2.67;;;23.70;86.20;;;;;;4996168;28;20273;-66
2022/06/11 08:01:41;;;;;;;8.23;5.63;;;23.80;84.50;;;;;;4992352;28;20946;-64
2022/06/11 08:04:06;;;;;;;4.95;3.17;;;23.80;84.70;;;;;;4997308;28;20187;-65
2022/06/11 08:06:32;;;;;;;4.75;2.60;;;23.80;84.60;;;;;;4993469;28;20741;-65
2022/06/11 08:08:58;;;;;;;8.75;2.20;;;23.90;83.40;;;;;;4990020;28;20210;-65
2022/06/11 08:11:23;;;;;;;4.35;3.47;;;23.90;83.50;;;;;;5014131;28;20215;-63
2022/06/11 08:13:49;;;;;;;7.78;2.95;;;24.00;83.30;;;;;;4989168;28;20246;-65
2022/06/11 08:16:15;;;;;;;3.90;3.05;;;24.10;83.00;;;;;;5016472;28;20199;-64
2022/06/11 08:18:42;;;;;;;6.72;2.10;;;24.20;81.50;;;;;;4986540;28;20545;-63
2022/06/11 08:21:08;;;;;;;4.88;2.15;;;24.40;81.80;;;;;;4986388;28;20582;-63
2022/06/11 08:23:34;;;;;;;5.63;2.65;;;25.00;79.00;;;;;;5009074;28;20200;-64
2022/06/11 08:26:00;;;;;;;4.07;3.25;;;25.10;77.60;;;;;;4996125;28;20189;-64
2022/06/11 08:28:26;;;;;;;5.82;4.25;;;25.00;77.10;;;;;;4995012;28;20636;-64
2022/06/11 08:30:51;;;;;;;2.63;2.42;;;24.80;78.70;;;;;;4993635;28;20257;-64
2022/06/11 08:33:18;;;;;;;4.38;3.35;;;24.90;77.40;;;;;;4996404;28;20573;-64
2022/06/11 08:35:44;;;;;;;4.97;2.63;;;24.80;79.00;;;;;;4997088;28;20187;-65
2022/06/11 08:38:10;;;;;;;4.32;2.25;;;25.00;76.40;;;;;;4992190;28;20205;-65
2022/06/11 08:40:48;;;;;;;4.10;2.03;;;25.20;75.30;;;;;;4999495;28;20297;-64
2022/06/11 08:43:20;;;;;;;5.63;2.50;;;25.40;74.10;;;;;;4984288;28;20309;-65
2022/06/11 08:45:52;;;;;;;3.05;1.90;;;25.40;73.90;;;;;;5000898;28;20654;-65
2022/06/11 08:48:43;;;;;;;8.25;3.13;;;25.50;72.80;;;;;;4984400;28;20315;-64
2022/06/11 08:51:35;;;;;;;6.25;2.25;;;25.30;73.40;;;;;;4992071;28;20681;-64
2022/06/11 08:54:11;;;;;;;3.20;2.15;;;25.30;73.30;;;;;;4980994;28;20213;-66
2022/06/11 08:56:39;;;;;;;3.97;2.13;;;25.40;73.10;;;;;;5001808;28;21023;-65
2022/06/11 08:59:18;;;;;;;3.33;2.03;;;25.40;73.90;;;;;;4998305;28;20311;-66
2022/06/11 09:02:06;;;;;;;4.72;2.03;;;25.50;72.70;;;;;;4994887;28;20177;-65
2022/06/11 09:04:55;;;;;;;4.97;2.00;;;25.40;72.30;;;;;;4993445;28;20241;-65
2022/06/11 09:07:46;;;;;;;3.80;2.58;;;25.40;72.10;;;;;;4984268;28;20658;-66
2022/06/11 09:10:36;;;;;;;4.20;2.85;;;25.50;72.70;;;;;;4997124;28;20215;-65
2022/06/11 09:13:46;;;;;;;3.13;2.17;;;25.40;72.20;;;;;;4993422;28;20207;-67
2022/06/11 09:16:52;;;;;;;3.08;2.10;;;25.30;72.70;;;;;;4992351;28;20179;-65
2022/06/11 09:19:41;;;;;;;2.40;1.95;;;25.40;72.30;;;;;;4996146;28;20217;-68
2022/06/11 09:22:38;;;;;;;3.08;2.33;;;25.60;71.40;;;;;;4970170;28;20257;-66
2022/06/11 09:25:38;;;;;;;2.20;2.10;;;25.70;71.30;;;;;;4995607;28;20223;-68
2022/06/11 09:28:38;;;;;;;4.68;1.90;;;25.70;72.70;;;;;;5001069;28;20208;-66
2022/06/11 09:31:25;;;;;;;2.72;1.85;;;25.70;72.30;;;;;;4997994;28;20191;-65
2022/06/11 09:34:00;;;;;;;2.35;1.77;;;26.10;70.50;;;;;;4994562;28;20216;-66
2022/06/11 09:36:34;;;;;;;2.95;1.95;;;26.20;69.30;;;;;;5001652;28;20217;-66
2022/06/11 09:39:24;;;;;;;1.83;1.73;;;26.10;68.90;;;;;;4995790;28;20215;-66
2022/06/11 09:42:24;;;;;;;4.05;1.45;;;26.10;67.60;;;;;;4998886;28;20195;-65
2022/06/11 09:45:16;;;;;;;1.48;1.38;;;26.10;66.50;;;;;;4997218;28;20197;-66
2022/06/11 09:47:52;;;;;;;1.73;1.45;;;26.30;66.60;;;;;;4995967;28;20216;-65
2022/06/11 12:00:06;;;;;;;1.63;1.52;;;27.20;58.00;;;;;;4971996;28;20316;-72
2022/06/11 12:10:12;;;;;;;4.60;1.55;;;27.00;58.90;;;;;;4978676;28;20274;-75
2022/06/11 12:12:41;;;;;;;3.03;1.83;;;26.80;60.60;;;;;;4983512;28;20513;-77
2022/06/11 12:15:23;;;;;;;3.58;1.80;;;26.70;63.30;;;;;;4978419;28;20185;-76
2022/06/11 12:17:54;;;;;;;3.38;2.30;;;26.70;63.40;;;;;;4977261;28;20181;-72
2022/06/11 12:20:49;;;;;;;5.82;1.98;;;26.60;64.50;;;;;;4976297;28;20872;-72
2022/06/11 12:23:23;;;;;;;4.00;2.25;;;26.40;65.40;;;;;;4978150;28;20178;-74
2022/06/11 12:26:10;;;;;;;6.38;2.50;;;26.20;66.50;;;;;;4974643;28;20226;-77
2022/06/11 12:28:45;;;;;;;3.83;2.58;;;26.00;67.10;;;;;;4973835;28;20526;-79
2022/06/11 12:31:13;;;;;;;4.18;1.90;;;25.90;67.90;;;;;;4976418;28;20204;-77
2022/06/11 12:33:43;;;;;;;4.28;2.47;;;25.80;68.40;;;;;;4976452;28;20187;-79
2022/06/11 12:36:16;;;;;;;2.80;2.33;;;25.80;68.40;;;;;;4974779;28;20208;-80
2022/06/11 12:39:08;;;;;;;3.63;2.30;;;25.80;68.60;;;;;;4976731;28;20619;-76
2022/06/11 12:42:01;;;;;;;5.53;1.90;;;25.80;69.20;;;;;;4957499;28;20208;-78
2022/06/11 12:44:57;;;;;;;9.05;2.25;;;25.90;68.30;;;;;;4974716;28;20619;-79
2022/06/11 12:47:57;;;;;;;3.88;2.50;;;26.10;68.80;;;;;;4972947;28;20207;-76
2022/06/11 12:50:45;;;;;;;6.38;2.20;;;26.30;67.80;;;;;;4972464;28;20213;-75
2022/06/11 12:53:25;;;;;;;3.22;2.20;;;26.30;67.50;;;;;;4983266;28;20212;-79
2022/06/11 12:56:04;;;;;;;3.88;2.25;;;26.50;67.10;;;;;;4960929;28;20197;-79
2022/06/11 12:59:11;;;;;;;3.80;1.80;;;27.00;66.70;;;;;;4969792;28;20224;-78
2022/06/11 13:02:08;;;;;;;4.13;1.88;;;27.40;64.90;;;;;;4962328;28;20703;-77
2022/06/11 13:05:05;;;;;;;4.70;2.15;;;27.50;63.70;;;;;;4969279;28;20637;-76
2022/06/11 13:07:45;;;;;;;3.00;1.73;;;27.60;64.30;;;;;;4967690;28;20655;-71
2022/06/11 13:10:44;;;;;;;29.73;27.40;;;27.70;64.10;;;;;;4969574;28;20584;-71
2022/06/11 13:13:35;;;;;;;189.45;175.57;;;28.00;63.40;;;;;;4967120;28;20277;-73
2022/06/11 13:16:20;;;;;;;23.10;10.18;;;28.10;62.20;;;;;;4966807;28;20243;-68
2022/06/11 13:19:09;;;;;;;38.03;34.85;;;28.00;62.00;;;;;;4967462;28;20257;-65
2022/06/11 13:21:49;;;;;;;917.70;852.53;;;28.00;62.80;;;;;;4955260;28;20960;-82
2022/06/11 13:24:23;;;;;;;20.80;7.47;;;27.80;62.50;;;;;;4966684;28;20383;-69
2022/06/11 13:27:08;;;;;;;27.48;8.48;;;27.50;63.10;;;;;;4961801;28;20188;-71
2022/06/11 13:29:57;;;;;;;3.05;2.00;;;27.20;62.60;;;;;;4966748;28;20225;-70
2022/06/11 13:32:34;;;;;;;2.95;2.05;;;27.00;66.00;;;;;;4949181;28;20187;-71
2022/06/11 13:35:09;;;;;;;23.25;5.95;;;27.00;64.50;;;;;;4969324;28;20574;-69
2022/06/11 13:38:13;;;;;;;36.00;10.27;;;27.00;64.20;;;;;;4965475;28;20243;-67
2022/06/11 13:40:49;;;;;;;310.52;288.73;;;27.00;64.30;;;;;;4964298;28;20271;-67
2022/06/11 13:43:37;;;;;;;500.45;468.05;;;27.10;64.10;;;;;;4976155;28;20204;-65
2022/06/11 13:46:25;;;;;;;159.98;148.70;;;27.20;64.40;;;;;;4978809;28;20269;-67
2022/06/11 13:49:23;;;;;;;4.88;2.28;;;27.40;63.70;;;;;;4951366;28;20672;-68
2022/06/11 13:51:56;;;;;;;3.72;1.98;;;27.70;63.80;;;;;;4969416;28;20196;-66
2022/06/11 13:57:43;;;;;;;228.45;212.85;;;29.10;61.00;;;;;;4975661;28;20201;-68
2022/06/11 14:00:25;;;;;;;130.88;120.45;;;29.70;59.40;;;;;;4973675;28;20280;-67
2022/06/11 14:03:09;;;;;;;66.97;61.35;;;29.30;57.40;;;;;;4978814;28;20293;-66
2022/06/11 14:05:42;;;;;;;409.67;380.45;;;28.50;57.90;;;;;;4973267;28;20285;-70
2022/06/11 14:08:09;;;;;;;558.85;513.95;;;28.20;58.90;;;;;;4967801;28;20194;-70
2022/06/11 14:10:36;;;;;;;29.10;26.27;;;28.50;56.50;;;;;;4966233;28;20282;-66
2022/06/11 14:13:33;;;;;;;162.75;148.68;;;28.80;55.10;;;;;;4967483;28;20659;-66
2022/06/11 14:16:31;;;;;;;14.13;10.93;;;29.10;55.80;;;;;;4967960;28;20220;-68
2022/06/11 14:18:58;;;;;;;961.15;878.72;;;30.10;53.30;;;;;;4955917;28;20200;-67
2022/06/11 14:21:39;;;;;;;432.25;394.88;;;30.40;51.10;;;;;;4968345;28;20683;-69
2022/06/11 14:24:09;;;;;;;2.35;1.92;;;31.50;49.80;;;;;;4966354;28;20323;-67
2022/06/11 14:26:54;;;;;;;1.13;1.02;;;31.60;49.50;;;;;;4968272;28;20378;-67
2022/06/11 14:29:27;;;;;;;4.13;1.80;;;31.20;48.70;;;;;;4965511;28;20233;-67
2022/06/11 14:31:58;;;;;;;3.13;1.77;;;30.40;50.00;;;;;;4967637;28;20204;-66
2022/06/11 14:34:33;;;;;;;2.53;1.30;;;29.80;51.10;;;;;;4965958;28;20333;-67
2022/06/11 14:37:26;;;;;;;2.88;1.80;;;29.70;51.30;;;;;;4967925;28;20211;-68
2022/06/11 14:40:23;;;;;;;4.28;1.27;;;29.80;50.90;;;;;;4966202;28;20244;-68
2022/06/11 14:43:00;;;;;;;2.38;1.40;;;30.20;51.30;;;;;;4957531;28;20281;-67
2022/06/11 14:45:48;;;;;;;2.60;1.63;;;31.30;51.10;;;;;;4963248;28;20217;-67
2022/06/11 14:48:43;;;;;;;1.48;1.27;;;31.60;50.00;;;;;;4963410;28;20272;-67
2022/06/11 14:51:11;;;;;;;4.32;1.38;;;32.20;48.70;;;;;;4967813;28;20248;-69
2022/06/11 14:53:52;;;;;;;1.60;1.40;;;31.20;50.00;;;;;;4965544;28;20225;-68
2022/06/11 14:56:46;;;;;;;1.67;1.58;;;30.60;50.60;;;;;;4967567;28;20619;-68
2022/06/11 14:59:42;;;;;;;14.63;13.02;;;30.30;50.80;;;;;;4952521;28;20329;-67
2022/06/11 15:02:49;;;;;;;3.05;1.92;;;30.10;51.80;;;;;;4967032;28;20205;-69
2022/06/11 15:05:42;;;;;;;3.60;3.15;;;30.00;52.30;;;;;;4960201;28;20647;-67
2022/06/11 15:08:49;;;;;;;3.05;1.60;;;29.90;52.20;;;;;;4966338;28;20269;-67
2022/06/11 15:11:48;;;;;;;2.88;1.73;;;29.90;52.00;;;;;;4914262;29;20198;-69
2022/06/11 15:14:38;;;;;;;2.05;1.52;;;30.40;51.20;;;;;;4953834;28;20304;-68
2022/06/11 15:17:23;;;;;;;7.93;5.20;;;31.20;49.90;;;;;;4965277;28;20185;-67
2022/06/11 15:19:56;;;;;;;2.95;1.50;;;30.80;49.60;;;;;;4957304;28;20240;-70
2022/06/11 15:22:34;;;;;;;1.17;1.00;;;30.20;48.60;;;;;;4967088;28;20197;-71
2022/06/11 15:25:10;;;;;;;1.70;1.60;;;29.70;48.90;;;;;;4958620;28;20194;-70
2022/06/11 15:27:38;;;;;;;2.50;1.67;;;29.40;50.10;;;;;;4966103;28;20185;-68
2022/06/11 15:30:29;;;;;;;3.20;1.80;;;29.00;51.70;;;;;;4965200;28;20284;-69
2022/06/11 15:33:09;;;;;;;3.13;1.38;;;29.40;52.00;;;;;;4948463;28;20190;-70
2022/06/11 15:35:43;;;;;;;1.80;1.70;;;30.00;50.60;;;;;;4967014;28;20177;-68
2022/06/11 15:38:18;;;;;;;20.50;9.20;;;30.60;50.10;;;;;;4949938;28;20647;-69
2022/06/11 15:40:51;;;;;;;3.10;1.98;;;30.30;50.50;;;;;;4967023;28;20188;-68
2022/06/11 15:43:21;;;;;;;5.28;4.57;;;30.30;51.30;;;;;;4950924;28;20583;-68